Chevak, AK

8:16 AM AKST on January 17, 2017 (GMT -0900)
Chevak | | Change Station

Elev 75 ft 61.54 °N, 165.60 °W | Updated 20 minutes ago

Overcast
Overcast
-3 °F
Feels Like -18 °F
N
8
Wind Variable Wind from South

Today
High -- | Low -- °F
--% Chance of Precip.
Yesterday
High -- | Low -- °F
Precip. -- in
Pressure 29.54 in
Visibility 10.0 miles
Clouds Overcast 2600 ft
Windchill -18 °F
Dew Point -7 °F
Humidity 82%
Rainfall 0.00 in
Snow Depth Not available.
10:57 AM 5:28 PM
Waning Gibbous, 71% visible
METAR PAVA 171656Z AUTO 18007KT 10SM OVC026 M19/M22 A2950 RMK AO2 SLP003 T11941217 FZRANO
Pressure 29.54 in
Visibility 10.0 miles
Clouds Overcast 2600 ft
Windchill -18 °F
Dew Point -7 °F
Humidity 82%
Rainfall 0.00 in
Snow Depth Not available.
10:57 AM 5:28 PM
Waning Gibbous, 71% visible
METAR PAVA 171656Z AUTO 18007KT 10SM OVC026 M19/M22 A2950 RMK AO2 SLP003 T11941217 FZRANO

Get Your Daily Forecast Email!

Thanks for signing up!

Be on the lookout for a verification email in your inbox.

You'll start receiving the daily forecast at 8 AM.

×

10-Day Weather Forecast

Almanac

Astronomy

Jan. 17, 2017 Rise Set
Actual Time
Civil Twilight
Nautical Twilight
Astronomical Twilight
Moon
Length of Visible Light
Length of Day
Tomorrow will be .
, % of the Moon is Illuminated

Today's Extremes

State Highs State Lows

Community

WunderPhotos

Upload Photos

1,962,540 photos uploaded!

WunderBlog® & News

Nearby

Air Quality

  Air Quality AQ Index Pollutant
Not available.

Snow Depth

Station Depth Elevation

Earthquake Activity

City Distance Mag. Time & Date
Minimum magnitude displayed is 2.5.

Coastal Water Temperatures

Place Temperature

Stations

Nearby Weather Stations

Station Location Temp. Windchill Dew Point Humidity Wind Precip. Elev Updated Type
                   

Watches & Warnings

There are currently no watches in effect.